<?xml version="1.0" encoding="UTF-8" standalone="no" ?>
<gpx xmlns="http://www.topografix.com/GPX/1/1" xmlns:xsi="http://www.w3.org/2001/XMLSchema-instance" xsi:schemaLocation="http://www.topografix.com/GPX/1/1 http://www.topografix.com/GPX/1/1/gpx.xsd" version="1.1" creator="VisuGPX - https://www.visugpx.com">
  <metadata>
    <name>Camping Arlebosc-Le Corral</name>
    <desc><![CDATA[Parcours entre le camping d'Arlebosc et le gîte le Corral à Cheminas.]]></desc>
  </metadata>
  <trk>
    <name><![CDATA[20180411140905-PUomM]]></name>
    <trkseg>
      <trkpt lat="45.02428" lon="4.64933">
        <ele>298</ele>
        <time>2018-04-11T10:38:48Z</time>
      </trkpt>
      <trkpt lat="45.02511" lon="4.64864">
        <ele>305</ele>
        <time>2018-04-11T10:39:48Z</time>
      </trkpt>
      <trkpt lat="45.02594" lon="4.64756">
        <ele>305</ele>
        <time>2018-04-11T10:40:48Z</time>
      </trkpt>
      <trkpt lat="45.02659" lon="4.64739">
        <ele>307</ele>
        <time>2018-04-11T10:41:48Z</time>
      </trkpt>
      <trkpt lat="45.02706" lon="4.64737">
        <ele>311</ele>
        <time>2018-04-11T10:42:48Z</time>
      </trkpt>
      <trkpt lat="45.02757" lon="4.64711">
        <ele>315</ele>
        <time>2018-04-11T10:43:48Z</time>
      </trkpt>
      <trkpt lat="45.02814" lon="4.64657">
        <ele>328</ele>
        <time>2018-04-11T10:44:48Z</time>
      </trkpt>
      <trkpt lat="45.02951" lon="4.64685">
        <ele>320</ele>
        <time>2018-04-11T10:45:48Z</time>
      </trkpt>
      <trkpt lat="45.0303" lon="4.64576">
        <ele>347</ele>
        <time>2018-04-11T10:46:48Z</time>
      </trkpt>
      <trkpt lat="45.0307" lon="4.64306">
        <ele>364</ele>
        <time>2018-04-11T10:47:48Z</time>
      </trkpt>
      <trkpt lat="45.03089" lon="4.6438">
        <ele>363</ele>
        <time>2018-04-11T10:48:48Z</time>
      </trkpt>
      <trkpt lat="45.03104" lon="4.645">
        <ele>357</ele>
        <time>2018-04-11T10:49:48Z</time>
      </trkpt>
      <trkpt lat="45.03127" lon="4.64602">
        <ele>351</ele>
        <time>2018-04-11T10:50:48Z</time>
      </trkpt>
      <trkpt lat="45.03221" lon="4.64589">
        <ele>368</ele>
        <time>2018-04-11T10:51:48Z</time>
      </trkpt>
      <trkpt lat="45.03306" lon="4.64566">
        <ele>379</ele>
        <time>2018-04-11T10:52:48Z</time>
      </trkpt>
      <trkpt lat="45.03286" lon="4.64658">
        <ele>375</ele>
        <time>2018-04-11T10:53:48Z</time>
      </trkpt>
      <trkpt lat="45.03311" lon="4.64714">
        <ele>378</ele>
        <time>2018-04-11T10:54:48Z</time>
      </trkpt>
      <trkpt lat="45.03338" lon="4.64877">
        <ele>382</ele>
        <time>2018-04-11T10:55:48Z</time>
      </trkpt>
      <trkpt lat="45.03311" lon="4.6493">
        <ele>377</ele>
        <time>2018-04-11T10:56:48Z</time>
      </trkpt>
      <trkpt lat="45.03322" lon="4.65012">
        <ele>377</ele>
        <time>2018-04-11T10:57:48Z</time>
      </trkpt>
      <trkpt lat="45.03394" lon="4.65076">
        <ele>384</ele>
        <time>2018-04-11T10:58:48Z</time>
      </trkpt>
      <trkpt lat="45.0345" lon="4.65165">
        <ele>392</ele>
        <time>2018-04-11T10:59:48Z</time>
      </trkpt>
      <trkpt lat="45.0354" lon="4.6515">
        <ele>406</ele>
        <time>2018-04-11T11:00:48Z</time>
      </trkpt>
      <trkpt lat="45.03556" lon="4.65193">
        <ele>408</ele>
        <time>2018-04-11T11:01:48Z</time>
      </trkpt>
      <trkpt lat="45.03635" lon="4.65199">
        <ele>417</ele>
        <time>2018-04-11T11:02:48Z</time>
      </trkpt>
      <trkpt lat="45.03646" lon="4.65276">
        <ele>418</ele>
        <time>2018-04-11T11:03:48Z</time>
      </trkpt>
      <trkpt lat="45.03759" lon="4.65171">
        <ele>431</ele>
        <time>2018-04-11T11:04:48Z</time>
      </trkpt>
      <trkpt lat="45.0386" lon="4.65112">
        <ele>448</ele>
        <time>2018-04-11T11:05:48Z</time>
      </trkpt>
      <trkpt lat="45.03889" lon="4.65069">
        <ele>453</ele>
        <time>2018-04-11T11:06:48Z</time>
      </trkpt>
      <trkpt lat="45.04024" lon="4.64839">
        <ele>469</ele>
        <time>2018-04-11T11:07:48Z</time>
      </trkpt>
      <trkpt lat="45.04027" lon="4.64719">
        <ele>479</ele>
        <time>2018-04-11T11:08:48Z</time>
      </trkpt>
      <trkpt lat="45.04052" lon="4.64637">
        <ele>484</ele>
        <time>2018-04-11T11:09:48Z</time>
      </trkpt>
      <trkpt lat="45.04135" lon="4.64601">
        <ele>483</ele>
        <time>2018-04-11T11:10:48Z</time>
      </trkpt>
      <trkpt lat="45.04191" lon="4.6464">
        <ele>477</ele>
        <time>2018-04-11T11:11:48Z</time>
      </trkpt>
      <trkpt lat="45.04256" lon="4.64594">
        <ele>476</ele>
        <time>2018-04-11T11:12:48Z</time>
      </trkpt>
      <trkpt lat="45.04297" lon="4.64545">
        <ele>476</ele>
        <time>2018-04-11T11:13:48Z</time>
      </trkpt>
      <trkpt lat="45.04285" lon="4.64474">
        <ele>484</ele>
        <time>2018-04-11T11:14:48Z</time>
      </trkpt>
      <trkpt lat="45.04335" lon="4.64443">
        <ele>472</ele>
        <time>2018-04-11T11:15:48Z</time>
      </trkpt>
      <trkpt lat="45.04346" lon="4.64308">
        <ele>482</ele>
        <time>2018-04-11T11:16:48Z</time>
      </trkpt>
      <trkpt lat="45.04371" lon="4.64253">
        <ele>482</ele>
        <time>2018-04-11T11:17:48Z</time>
      </trkpt>
      <trkpt lat="45.04368" lon="4.64166">
        <ele>500</ele>
        <time>2018-04-11T11:18:48Z</time>
      </trkpt>
      <trkpt lat="45.04422" lon="4.64092">
        <ele>504</ele>
        <time>2018-04-11T11:19:48Z</time>
      </trkpt>
      <trkpt lat="45.04447" lon="4.64181">
        <ele>495</ele>
        <time>2018-04-11T11:20:48Z</time>
      </trkpt>
      <trkpt lat="45.04489" lon="4.64222">
        <ele>497</ele>
        <time>2018-04-11T11:21:48Z</time>
      </trkpt>
      <trkpt lat="45.04554" lon="4.64173">
        <ele>518</ele>
        <time>2018-04-11T11:22:48Z</time>
      </trkpt>
      <trkpt lat="45.0457" lon="4.64115">
        <ele>525</ele>
        <time>2018-04-11T11:23:48Z</time>
      </trkpt>
      <trkpt lat="45.04597" lon="4.64082">
        <ele>542</ele>
        <time>2018-04-11T11:24:48Z</time>
      </trkpt>
      <trkpt lat="45.04581" lon="4.6401">
        <ele>535</ele>
        <time>2018-04-11T11:25:48Z</time>
      </trkpt>
      <trkpt lat="45.04584" lon="4.63977">
        <ele>544</ele>
        <time>2018-04-11T11:26:48Z</time>
      </trkpt>
      <trkpt lat="45.04718" lon="4.63811">
        <ele>557</ele>
        <time>2018-04-11T11:27:48Z</time>
      </trkpt>
      <trkpt lat="45.04778" lon="4.63633">
        <ele>570</ele>
        <time>2018-04-11T11:28:48Z</time>
      </trkpt>
      <trkpt lat="45.04816" lon="4.63406">
        <ele>584</ele>
        <time>2018-04-11T11:29:48Z</time>
      </trkpt>
      <trkpt lat="45.04846" lon="4.63397">
        <ele>587</ele>
        <time>2018-04-11T11:30:48Z</time>
      </trkpt>
      <trkpt lat="45.04866" lon="4.63516">
        <ele>587</ele>
        <time>2018-04-11T11:31:48Z</time>
      </trkpt>
      <trkpt lat="45.04875" lon="4.63621">
        <ele>591</ele>
        <time>2018-04-11T11:32:48Z</time>
      </trkpt>
      <trkpt lat="45.04966" lon="4.63664">
        <ele>610</ele>
        <time>2018-04-11T11:33:48Z</time>
      </trkpt>
      <trkpt lat="45.05014" lon="4.63789">
        <ele>618</ele>
        <time>2018-04-11T11:34:48Z</time>
      </trkpt>
      <trkpt lat="45.05074" lon="4.63764">
        <ele>617</ele>
        <time>2018-04-11T11:35:48Z</time>
      </trkpt>
      <trkpt lat="45.05079" lon="4.63848">
        <ele>615</ele>
        <time>2018-04-11T11:36:48Z</time>
      </trkpt>
      <trkpt lat="45.0513" lon="4.63896">
        <ele>607</ele>
        <time>2018-04-11T11:37:48Z</time>
      </trkpt>
      <trkpt lat="45.05162" lon="4.63851">
        <ele>608</ele>
        <time>2018-04-11T11:38:48Z</time>
      </trkpt>
      <trkpt lat="45.05317" lon="4.63914">
        <ele>608</ele>
        <time>2018-04-11T11:39:48Z</time>
      </trkpt>
      <trkpt lat="45.05429" lon="4.63986">
        <ele>598</ele>
        <time>2018-04-11T11:40:48Z</time>
      </trkpt>
      <trkpt lat="45.05569" lon="4.63976">
        <ele>603</ele>
        <time>2018-04-11T11:41:48Z</time>
      </trkpt>
      <trkpt lat="45.05634" lon="4.63958">
        <ele>610</ele>
        <time>2018-04-11T11:42:48Z</time>
      </trkpt>
      <trkpt lat="45.05783" lon="4.64035">
        <ele>620</ele>
        <time>2018-04-11T11:43:48Z</time>
      </trkpt>
      <trkpt lat="45.05851" lon="4.64099">
        <ele>612</ele>
        <time>2018-04-11T11:44:48Z</time>
      </trkpt>
      <trkpt lat="45.05909" lon="4.64147">
        <ele>609</ele>
        <time>2018-04-11T11:45:48Z</time>
      </trkpt>
      <trkpt lat="45.0588" lon="4.64209">
        <ele>597</ele>
        <time>2018-04-11T11:46:48Z</time>
      </trkpt>
      <trkpt lat="45.05833" lon="4.6422">
        <ele>590</ele>
        <time>2018-04-11T11:47:48Z</time>
      </trkpt>
      <trkpt lat="45.05813" lon="4.64243">
        <ele>589</ele>
        <time>2018-04-11T11:48:48Z</time>
      </trkpt>
      <trkpt lat="45.05831" lon="4.64328">
        <ele>576</ele>
        <time>2018-04-11T11:49:48Z</time>
      </trkpt>
      <trkpt lat="45.05773" lon="4.64414">
        <ele>566</ele>
        <time>2018-04-11T11:50:48Z</time>
      </trkpt>
      <trkpt lat="45.05726" lon="4.64524">
        <ele>543</ele>
        <time>2018-04-11T11:51:48Z</time>
      </trkpt>
      <trkpt lat="45.05672" lon="4.64598">
        <ele>533</ele>
        <time>2018-04-11T11:52:48Z</time>
      </trkpt>
      <trkpt lat="45.05622" lon="4.64629">
        <ele>530</ele>
        <time>2018-04-11T11:53:48Z</time>
      </trkpt>
      <trkpt lat="45.0558" lon="4.64772">
        <ele>531</ele>
        <time>2018-04-11T11:54:48Z</time>
      </trkpt>
      <trkpt lat="45.05607" lon="4.64866">
        <ele>527</ele>
        <time>2018-04-11T11:55:48Z</time>
      </trkpt>
      <trkpt lat="45.05604" lon="4.64912">
        <ele>529</ele>
        <time>2018-04-11T11:56:48Z</time>
      </trkpt>
      <trkpt lat="45.05622" lon="4.65008">
        <ele>528</ele>
        <time>2018-04-11T11:57:48Z</time>
      </trkpt>
      <trkpt lat="45.05598" lon="4.65046">
        <ele>530</ele>
        <time>2018-04-11T11:58:48Z</time>
      </trkpt>
      <trkpt lat="45.05485" lon="4.65163">
        <ele>543</ele>
        <time>2018-04-11T11:59:48Z</time>
      </trkpt>
      <trkpt lat="45.05346" lon="4.65311">
        <ele>542</ele>
        <time>2018-04-11T12:00:48Z</time>
      </trkpt>
      <trkpt lat="45.05268" lon="4.65448">
        <ele>527</ele>
        <time>2018-04-11T12:01:48Z</time>
      </trkpt>
      <trkpt lat="45.05214" lon="4.65502">
        <ele>521</ele>
        <time>2018-04-11T12:02:48Z</time>
      </trkpt>
      <trkpt lat="45.05209" lon="4.65571">
        <ele>518</ele>
        <time>2018-04-11T12:03:48Z</time>
      </trkpt>
      <trkpt lat="45.05174" lon="4.6575">
        <ele>505</ele>
        <time>2018-04-11T12:04:48Z</time>
      </trkpt>
      <trkpt lat="45.05106" lon="4.65911">
        <ele>496</ele>
        <time>2018-04-11T12:05:48Z</time>
      </trkpt>
      <trkpt lat="45.05117" lon="4.66017">
        <ele>487</ele>
        <time>2018-04-11T12:06:48Z</time>
      </trkpt>
      <trkpt lat="45.05145" lon="4.66144">
        <ele>480</ele>
        <time>2018-04-11T12:07:48Z</time>
      </trkpt>
      <trkpt lat="45.05113" lon="4.66218">
        <ele>474</ele>
        <time>2018-04-11T12:08:48Z</time>
      </trkpt>
      <trkpt lat="45.05201" lon="4.66339">
        <ele>473</ele>
        <time>2018-04-11T12:09:48Z</time>
      </trkpt>
      <trkpt lat="45.05296" lon="4.66406">
        <ele>473</ele>
        <time>2018-04-11T12:10:48Z</time>
      </trkpt>
      <trkpt lat="45.0541" lon="4.66446">
        <ele>470</ele>
        <time>2018-04-11T12:11:48Z</time>
      </trkpt>
      <trkpt lat="45.05487" lon="4.66607">
        <ele>464</ele>
        <time>2018-04-11T12:12:48Z</time>
      </trkpt>
      <trkpt lat="45.05513" lon="4.66671">
        <ele>458</ele>
        <time>2018-04-11T12:13:48Z</time>
      </trkpt>
      <trkpt lat="45.05504" lon="4.66737">
        <ele>455</ele>
        <time>2018-04-11T12:14:48Z</time>
      </trkpt>
      <trkpt lat="45.05506" lon="4.66824">
        <ele>448</ele>
        <time>2018-04-11T12:15:48Z</time>
      </trkpt>
      <trkpt lat="45.05579" lon="4.66917">
        <ele>441</ele>
        <time>2018-04-11T12:16:48Z</time>
      </trkpt>
      <trkpt lat="45.0565" lon="4.66856">
        <ele>434</ele>
        <time>2018-04-11T12:17:48Z</time>
      </trkpt>
      <trkpt lat="45.05724" lon="4.66779">
        <ele>428</ele>
        <time>2018-04-11T12:18:48Z</time>
      </trkpt>
      <trkpt lat="45.05794" lon="4.66764">
        <ele>425</ele>
        <time>2018-04-11T12:19:48Z</time>
      </trkpt>
      <trkpt lat="45.05892" lon="4.66764">
        <ele>420</ele>
        <time>2018-04-11T12:20:48Z</time>
      </trkpt>
      <trkpt lat="45.05901" lon="4.66695">
        <ele>422</ele>
        <time>2018-04-11T12:21:48Z</time>
      </trkpt>
      <trkpt lat="45.05913" lon="4.6665">
        <ele>423</ele>
        <time>2018-04-11T12:22:48Z</time>
      </trkpt>
      <trkpt lat="45.0595" lon="4.66605">
        <ele>427</ele>
        <time>2018-04-11T12:23:48Z</time>
      </trkpt>
      <trkpt lat="45.0598" lon="4.66673">
        <ele>428</ele>
        <time>2018-04-11T12:24:48Z</time>
      </trkpt>
      <trkpt lat="45.06068" lon="4.66656">
        <ele>436</ele>
        <time>2018-04-11T12:25:48Z</time>
      </trkpt>
      <trkpt lat="45.06141" lon="4.66708">
        <ele>440</ele>
        <time>2018-04-11T12:26:48Z</time>
      </trkpt>
      <trkpt lat="45.06189" lon="4.66731">
        <ele>446</ele>
        <time>2018-04-11T12:27:48Z</time>
      </trkpt>
      <trkpt lat="45.06307" lon="4.66723">
        <ele>455</ele>
        <time>2018-04-11T12:28:48Z</time>
      </trkpt>
      <trkpt lat="45.06445" lon="4.66723">
        <ele>466</ele>
        <time>2018-04-11T12:29:48Z</time>
      </trkpt>
      <trkpt lat="45.06549" lon="4.66766">
        <ele>465</ele>
        <time>2018-04-11T12:30:48Z</time>
      </trkpt>
      <trkpt lat="45.06554" lon="4.66859">
        <ele>465</ele>
        <time>2018-04-11T12:31:48Z</time>
      </trkpt>
      <trkpt lat="45.06563" lon="4.67048">
        <ele>467</ele>
        <time>2018-04-11T12:32:48Z</time>
      </trkpt>
      <trkpt lat="45.06544" lon="4.67249">
        <ele>479</ele>
        <time>2018-04-11T12:33:48Z</time>
      </trkpt>
      <trkpt lat="45.06544" lon="4.67485">
        <ele>491</ele>
        <time>2018-04-11T12:34:48Z</time>
      </trkpt>
      <trkpt lat="45.06528" lon="4.6765">
        <ele>496</ele>
        <time>2018-04-11T12:35:48Z</time>
      </trkpt>
      <trkpt lat="45.06509" lon="4.6783">
        <ele>497</ele>
        <time>2018-04-11T12:36:48Z</time>
      </trkpt>
      <trkpt lat="45.06495" lon="4.68016">
        <ele>494</ele>
        <time>2018-04-11T12:37:48Z</time>
      </trkpt>
      <trkpt lat="45.06425" lon="4.68216">
        <ele>486</ele>
        <time>2018-04-11T12:38:48Z</time>
      </trkpt>
      <trkpt lat="45.06454" lon="4.6839">
        <ele>486</ele>
        <time>2018-04-11T12:39:48Z</time>
      </trkpt>
      <trkpt lat="45.0646" lon="4.68489">
        <ele>486</ele>
        <time>2018-04-11T12:40:48Z</time>
      </trkpt>
      <trkpt lat="45.06524" lon="4.68555">
        <ele>484</ele>
        <time>2018-04-11T12:41:48Z</time>
      </trkpt>
      <trkpt lat="45.06574" lon="4.68645">
        <ele>484</ele>
        <time>2018-04-11T12:42:48Z</time>
      </trkpt>
      <trkpt lat="45.06572" lon="4.68761">
        <ele>476</ele>
        <time>2018-04-11T12:43:48Z</time>
      </trkpt>
      <trkpt lat="45.06559" lon="4.68823">
        <ele>472</ele>
        <time>2018-04-11T12:44:48Z</time>
      </trkpt>
      <trkpt lat="45.06577" lon="4.68905">
        <ele>461</ele>
        <time>2018-04-11T12:45:48Z</time>
      </trkpt>
      <trkpt lat="45.06568" lon="4.68961">
        <ele>456</ele>
        <time>2018-04-11T12:46:48Z</time>
      </trkpt>
      <trkpt lat="45.06605" lon="4.69014">
        <ele>449</ele>
        <time>2018-04-11T12:47:48Z</time>
      </trkpt>
      <trkpt lat="45.06674" lon="4.69038">
        <ele>448</ele>
        <time>2018-04-11T12:48:48Z</time>
      </trkpt>
      <trkpt lat="45.06681" lon="4.6907">
        <ele>447</ele>
        <time>2018-04-11T12:49:48Z</time>
      </trkpt>
      <trkpt lat="45.06771" lon="4.69051">
        <ele>447</ele>
        <time>2018-04-11T12:50:48Z</time>
      </trkpt>
      <trkpt lat="45.06833" lon="4.69085">
        <ele>443</ele>
        <time>2018-04-11T12:51:48Z</time>
      </trkpt>
      <trkpt lat="45.06899" lon="4.69089">
        <ele>438</ele>
        <time>2018-04-11T12:52:48Z</time>
      </trkpt>
      <trkpt lat="45.06969" lon="4.69102">
        <ele>431</ele>
        <time>2018-04-11T12:53:48Z</time>
      </trkpt>
      <trkpt lat="45.07045" lon="4.69081">
        <ele>425</ele>
        <time>2018-04-11T12:54:48Z</time>
      </trkpt>
      <trkpt lat="45.07121" lon="4.69113">
        <ele>418</ele>
        <time>2018-04-11T12:55:48Z</time>
      </trkpt>
      <trkpt lat="45.07171" lon="4.69194">
        <ele>408</ele>
        <time>2018-04-11T12:56:48Z</time>
      </trkpt>
      <trkpt lat="45.07174" lon="4.69246">
        <ele>408</ele>
        <time>2018-04-11T12:57:48Z</time>
      </trkpt>
      <trkpt lat="45.07165" lon="4.69267">
        <ele>410</ele>
        <time>2018-04-11T12:58:48Z</time>
      </trkpt>
      <trkpt lat="45.07257" lon="4.69464">
        <ele>386</ele>
        <time>2018-04-11T12:59:48Z</time>
      </trkpt>
      <trkpt lat="45.07383" lon="4.69548">
        <ele>371</ele>
        <time>2018-04-11T13:00:48Z</time>
      </trkpt>
      <trkpt lat="45.07474" lon="4.69579">
        <ele>360</ele>
        <time>2018-04-11T13:01:48Z</time>
      </trkpt>
      <trkpt lat="45.07552" lon="4.69628">
        <ele>343</ele>
        <time>2018-04-11T13:02:48Z</time>
      </trkpt>
      <trkpt lat="45.07555" lon="4.69521">
        <ele>348</ele>
        <time>2018-04-11T13:03:48Z</time>
      </trkpt>
      <trkpt lat="45.07593" lon="4.6963">
        <ele>341</ele>
        <time>2018-04-11T13:04:48Z</time>
      </trkpt>
      <trkpt lat="45.07593" lon="4.69533">
        <ele>346</ele>
        <time>2018-04-11T13:05:48Z</time>
      </trkpt>
      <trkpt lat="45.07593" lon="4.69439">
        <ele>350</ele>
        <time>2018-04-11T13:06:48Z</time>
      </trkpt>
      <trkpt lat="45.07577" lon="4.69278">
        <ele>352</ele>
        <time>2018-04-11T13:07:48Z</time>
      </trkpt>
      <trkpt lat="45.07687" lon="4.69458">
        <ele>375</ele>
        <time>2018-04-11T13:08:48Z</time>
      </trkpt>
      <trkpt lat="45.077" lon="4.6951">
        <ele>366</ele>
        <time>2018-04-11T13:09:48Z</time>
      </trkpt>
      <trkpt lat="45.07756" lon="4.69518">
        <ele>381</ele>
        <time>2018-04-11T13:10:48Z</time>
      </trkpt>
      <trkpt lat="45.07732" lon="4.69388">
        <ele>389</ele>
        <time>2018-04-11T13:11:48Z</time>
      </trkpt>
      <trkpt lat="45.07771" lon="4.69439">
        <ele>394</ele>
        <time>2018-04-11T13:12:48Z</time>
      </trkpt>
      <trkpt lat="45.07798" lon="4.69431">
        <ele>396</ele>
        <time>2018-04-11T13:13:48Z</time>
      </trkpt>
      <trkpt lat="45.078" lon="4.69332">
        <ele>409</ele>
        <time>2018-04-11T13:14:48Z</time>
      </trkpt>
      <trkpt lat="45.07751" lon="4.69201">
        <ele>419</ele>
        <time>2018-04-11T13:15:48Z</time>
      </trkpt>
      <trkpt lat="45.0775" lon="4.69098">
        <ele>426</ele>
        <time>2018-04-11T13:16:48Z</time>
      </trkpt>
      <trkpt lat="45.07797" lon="4.68995">
        <ele>436</ele>
        <time>2018-04-11T13:17:48Z</time>
      </trkpt>
      <trkpt lat="45.07941" lon="4.68925">
        <ele>453</ele>
        <time>2018-04-11T13:18:48Z</time>
      </trkpt>
      <trkpt lat="45.08027" lon="4.68878">
        <ele>461</ele>
        <time>2018-04-11T13:19:48Z</time>
      </trkpt>
      <trkpt lat="45.08085" lon="4.68725">
        <ele>471</ele>
        <time>2018-04-11T13:20:48Z</time>
      </trkpt>
      <trkpt lat="45.08156" lon="4.68698">
        <ele>469</ele>
        <time>2018-04-11T13:21:48Z</time>
      </trkpt>
      <trkpt lat="45.08277" lon="4.68631">
        <ele>467</ele>
        <time>2018-04-11T13:22:48Z</time>
      </trkpt>
      <trkpt lat="45.08348" lon="4.68631">
        <ele>465</ele>
        <time>2018-04-11T13:23:48Z</time>
      </trkpt>
      <trkpt lat="45.08391" lon="4.68714">
        <ele>463</ele>
        <time>2018-04-11T13:24:48Z</time>
      </trkpt>
      <trkpt lat="45.08365" lon="4.68822">
        <ele>465</ele>
        <time>2018-04-11T13:25:48Z</time>
      </trkpt>
      <trkpt lat="45.0859" lon="4.69069">
        <ele>488</ele>
        <time>2018-04-11T13:26:48Z</time>
      </trkpt>
      <trkpt lat="45.08643" lon="4.69269">
        <ele>486</ele>
        <time>2018-04-11T13:27:48Z</time>
      </trkpt>
      <trkpt lat="45.08686" lon="4.69423">
        <ele>486</ele>
        <time>2018-04-11T13:28:48Z</time>
      </trkpt>
      <trkpt lat="45.0879" lon="4.69552">
        <ele>484</ele>
        <time>2018-04-11T13:29:48Z</time>
      </trkpt>
      <trkpt lat="45.08869" lon="4.6959">
        <ele>481</ele>
        <time>2018-04-11T13:30:48Z</time>
      </trkpt>
      <trkpt lat="45.08975" lon="4.69595">
        <ele>490</ele>
        <time>2018-04-11T13:31:48Z</time>
      </trkpt>
      <trkpt lat="45.0901" lon="4.69674">
        <ele>492</ele>
        <time>2018-04-11T13:32:48Z</time>
      </trkpt>
      <trkpt lat="45.09135" lon="4.69775">
        <ele>493</ele>
        <time>2018-04-11T13:33:48Z</time>
      </trkpt>
      <trkpt lat="45.09432" lon="4.70185">
        <ele>492</ele>
        <time>2018-04-11T13:34:48Z</time>
      </trkpt>
      <trkpt lat="45.09644" lon="4.69784">
        <ele>514</ele>
        <time>2018-04-11T13:35:48Z</time>
      </trkpt>
      <trkpt lat="45.09663" lon="4.69721">
        <ele>518</ele>
        <time>2018-04-11T13:36:48Z</time>
      </trkpt>
      <trkpt lat="45.09716" lon="4.69699">
        <ele>520</ele>
        <time>2018-04-11T13:37:48Z</time>
      </trkpt>
      <trkpt lat="45.10016" lon="4.69429">
        <ele>524</ele>
        <time>2018-04-11T13:38:48Z</time>
      </trkpt>
      <trkpt lat="45.10064" lon="4.69279">
        <ele>528</ele>
        <time>2018-04-11T13:39:48Z</time>
      </trkpt>
      <trkpt lat="45.10187" lon="4.69133">
        <ele>519</ele>
        <time>2018-04-11T13:40:48Z</time>
      </trkpt>
      <trkpt lat="45.1026" lon="4.69174">
        <ele>513</ele>
        <time>2018-04-11T13:41:48Z</time>
      </trkpt>
      <trkpt lat="45.10293" lon="4.69324">
        <ele>509</ele>
        <time>2018-04-11T13:42:48Z</time>
      </trkpt>
      <trkpt lat="45.10349" lon="4.69457">
        <ele>502</ele>
        <time>2018-04-11T13:43:48Z</time>
      </trkpt>
      <trkpt lat="45.10445" lon="4.69502">
        <ele>496</ele>
        <time>2018-04-11T13:44:48Z</time>
      </trkpt>
      <trkpt lat="45.10538" lon="4.69416">
        <ele>496</ele>
        <time>2018-04-11T13:45:48Z</time>
      </trkpt>
      <trkpt lat="45.10617" lon="4.69422">
        <ele>499</ele>
        <time>2018-04-11T13:46:48Z</time>
      </trkpt>
      <trkpt lat="45.10692" lon="4.69373">
        <ele>508</ele>
        <time>2018-04-11T13:47:48Z</time>
      </trkpt>
      <trkpt lat="45.10754" lon="4.69562">
        <ele>510</ele>
        <time>2018-04-11T13:48:48Z</time>
      </trkpt>
      <trkpt lat="45.10752" lon="4.69611">
        <ele>509</ele>
        <time>2018-04-11T13:49:48Z</time>
      </trkpt>
      <trkpt lat="45.10803" lon="4.69642">
        <ele>509</ele>
        <time>2018-04-11T13:50:48Z</time>
      </trkpt>
      <trkpt lat="45.10879" lon="4.69869">
        <ele>496</ele>
        <time>2018-04-11T13:51:48Z</time>
      </trkpt>
      <trkpt lat="45.11132" lon="4.69667">
        <ele>504</ele>
        <time>2018-04-11T13:52:48Z</time>
      </trkpt>
      <trkpt lat="45.11214" lon="4.69812">
        <ele>503</ele>
        <time>2018-04-11T13:53:48Z</time>
      </trkpt>
      <trkpt lat="45.11248" lon="4.6997">
        <ele>503</ele>
        <time>2018-04-11T13:54:48Z</time>
      </trkpt>
      <trkpt lat="45.11288" lon="4.70149">
        <ele>505</ele>
        <time>2018-04-11T13:55:48Z</time>
      </trkpt>
      <trkpt lat="45.11242" lon="4.70181">
        <ele>505</ele>
        <time>2018-04-11T13:56:48Z</time>
      </trkpt>
      <trkpt lat="45.11209" lon="4.70218">
        <ele>505</ele>
        <time>2018-04-11T13:57:48Z</time>
      </trkpt>
      <trkpt lat="45.11205" lon="4.70314">
        <ele>509</ele>
        <time>2018-04-11T13:58:48Z</time>
      </trkpt>
      <trkpt lat="45.11195" lon="4.70366">
        <ele>511</ele>
        <time>2018-04-11T13:59:48Z</time>
      </trkpt>
      <trkpt lat="45.11236" lon="4.70497">
        <ele>517</ele>
        <time>2018-04-11T14:00:48Z</time>
      </trkpt>
      <trkpt lat="45.11344" lon="4.70628">
        <ele>528</ele>
        <time>2018-04-11T14:01:48Z</time>
      </trkpt>
      <trkpt lat="45.1137" lon="4.70668">
        <ele>531</ele>
        <time>2018-04-11T14:02:48Z</time>
      </trkpt>
      <trkpt lat="45.11325" lon="4.7079">
        <ele>538</ele>
        <time>2018-04-11T14:03:48Z</time>
      </trkpt>
      <trkpt lat="45.11241" lon="4.70974">
        <ele>543</ele>
        <time>2018-04-11T14:04:48Z</time>
      </trkpt>
      <trkpt lat="45.1121" lon="4.71045">
        <ele>543</ele>
        <time>2018-04-11T14:05:48Z</time>
      </trkpt>
      <trkpt lat="45.11188" lon="4.7114">
        <ele>543</ele>
        <time>2018-04-11T14:06:48Z</time>
      </trkpt>
      <trkpt lat="45.11101" lon="4.71401">
        <ele>538</ele>
        <time>2018-04-11T14:07:48Z</time>
      </trkpt>
      <trkpt lat="45.1106" lon="4.71457">
        <ele>540</ele>
        <time>2018-04-11T14:08:48Z</time>
      </trkpt>
      <trkpt lat="45.10992" lon="4.71457">
        <ele>545</ele>
        <time>2018-04-11T14:09:48Z</time>
      </trkpt>
      <trkpt lat="45.10971" lon="4.71715">
        <ele>530</ele>
        <time>2018-04-11T14:10:48Z</time>
      </trkpt>
      <trkpt lat="45.11042" lon="4.71768">
        <ele>526</ele>
        <time>2018-04-11T14:11:48Z</time>
      </trkpt>
      <trkpt lat="45.11127" lon="4.71863">
        <ele>518</ele>
        <time>2018-04-11T14:12:48Z</time>
      </trkpt>
      <trkpt lat="45.11436" lon="4.71901">
        <ele>511</ele>
        <time>2018-04-11T14:13:48Z</time>
      </trkpt>
      <trkpt lat="45.11483" lon="4.71863">
        <ele>511</ele>
        <time>2018-04-11T14:14:48Z</time>
      </trkpt>
      <trkpt lat="45.11702" lon="4.71974">
        <ele>511</ele>
        <time>2018-04-11T14:15:48Z</time>
      </trkpt>
      <trkpt lat="45.11742" lon="4.71985">
        <ele>512</ele>
        <time>2018-04-11T14:16:48Z</time>
      </trkpt>
      <trkpt lat="45.11832" lon="4.71953">
        <ele>518</ele>
        <time>2018-04-11T14:17:48Z</time>
      </trkpt>
      <trkpt lat="45.11959" lon="4.7199">
        <ele>521</ele>
        <time>2018-04-11T14:18:48Z</time>
      </trkpt>
      <trkpt lat="45.121" lon="4.71889">
        <ele>515</ele>
        <time>2018-04-11T14:19:48Z</time>
      </trkpt>
      <trkpt lat="45.12166" lon="4.71988">
        <ele>511</ele>
        <time>2018-04-11T14:20:48Z</time>
      </trkpt>
      <trkpt lat="45.12264" lon="4.72149">
        <ele>485</ele>
        <time>2018-04-11T14:21:48Z</time>
      </trkpt>
      <trkpt lat="45.12172" lon="4.72265">
        <ele>483</ele>
        <time>2018-04-11T14:22:48Z</time>
      </trkpt>
      <trkpt lat="45.12095" lon="4.72372">
        <ele>483</ele>
        <time>2018-04-11T14:23:48Z</time>
      </trkpt>
      <trkpt lat="45.11913" lon="4.726">
        <ele>494</ele>
        <time>2018-04-11T14:24:48Z</time>
      </trkpt>
      <trkpt lat="45.12009" lon="4.7269">
        <ele>493</ele>
        <time>2018-04-11T14:25:48Z</time>
      </trkpt>
      <trkpt lat="45.12313" lon="4.72737">
        <ele>486</ele>
        <time>2018-04-11T14:26:48Z</time>
      </trkpt>
      <trkpt lat="45.12621" lon="4.72804">
        <ele>472</ele>
        <time>2018-04-11T14:27:48Z</time>
      </trkpt>
      <trkpt lat="45.12888" lon="4.72733">
        <ele>469</ele>
        <time>2018-04-11T14:28:48Z</time>
      </trkpt>
      <trkpt lat="45.13073" lon="4.72618">
        <ele>462</ele>
        <time>2018-04-11T14:29:48Z</time>
      </trkpt>
      <trkpt lat="45.1315" lon="4.72586">
        <ele>459</ele>
        <time>2018-04-11T14:30:48Z</time>
      </trkpt>
      <trkpt lat="45.13342" lon="4.72657">
        <ele>441</ele>
        <time>2018-04-11T14:31:48Z</time>
      </trkpt>
      <trkpt lat="45.13344" lon="4.72955">
        <ele>438</ele>
        <time>2018-04-11T14:32:48Z</time>
      </trkpt>
      <trkpt lat="45.13476" lon="4.72946">
        <ele>437</ele>
        <time>2018-04-11T14:33:48Z</time>
      </trkpt>
      <trkpt lat="45.13495" lon="4.73024">
        <ele>444</ele>
        <time>2018-04-11T14:34:48Z</time>
      </trkpt>
      <trkpt lat="45.13554" lon="4.73056">
        <ele>444</ele>
        <time>2018-04-11T14:35:48Z</time>
      </trkpt>
      <trkpt lat="45.13586" lon="4.73022">
        <ele>439</ele>
        <time>2018-04-11T14:36:48Z</time>
      </trkpt>
      <trkpt lat="45.13663" lon="4.73277">
        <ele>441</ele>
        <time>2018-04-11T14:37:48Z</time>
      </trkpt>
    </trkseg>
  </trk>
</gpx>